首页
METAR-TAF:

METAR-TAF

机场 :

Alice, 得克萨斯州, 美国

纬度: 27-44-28N, 经度: 098-01-37W, 海拔: 54米

当前天气观测

该预报发布于14分钟前的13:26 UTC
风速5节,风向
温度 26°C
湿度 89%
气压 1018 hPa
能見度: 16.1公里
多云层高于600英尺
多云层高于4200英尺
阴天层高于8000英尺

METAR: KALI 251326Z AUTO 35005KT 10SM BKN006 BKN042 OVC080 26/24 A3005 RMK AO2 T02560244

时间: 08:40 (13:40 UTC)

预报

该预报发布于2小时和13分钟前的11:27 UTC
预报有效从25日的 12点(UTC)到 26日的 12点(UTC)
风速5节,风向多变
能見度: 10公里
多云层高于1500英尺, 积雨云.
附近有雷暴
从 25日的 1500点(UTC)
风速6节,风向北转西北
能見度: 10公里
多云层高于2500英尺, 积雨云.
附近有雷暴
短暂存在
从 25日的 16点(UTC)到 25日的 20点(UTC)
能見度: 6.4公里
少量云层高于2000英尺, 积雨云.
多云层高于3500英尺
雷暴, 小雨
从 25日的 2100点(UTC)
风速7节,风向东转东南
能見度: 10公里
少量云层高于3000英尺, 积雨云.
阴天层高于4000英尺
附近有雷暴
从 26日的 0200点(UTC)
风速3节,风向多变
能見度: 10公里
少量云层高于4000英尺
阴天层高于6000英尺

TAF: KALI 251127Z 2512/2612 VRB05KT P6SM VCTS BKN015CB FM251500 34006KT P6SM VCTS BKN025CB TEMPO 2516/2520 4SM -TSRA FEW020CB BKN035 FM252100 11007KT P6SM VCTS FEW030CB OVC040 FM260200 VRB03KT P6SM FEW040 OVC060

超过4000个机场的气象观测和天气预报(METAR&TAF报告)。

可查询的气象台以黄色和红色小点在地图上表示。

将鼠标移到小点上方,可查看气象台名称。

然后点击查看天气观测和预报。

如需切换地图:点击带黑十字的绿色按钮放大地图;点击带横线的绿色按钮缩小地图;或者点击绿色箭头查看邻近地区的地图。


METAR-TAF: